Time;durP1;ratioP1;P1;durP2;ratioP2;P2;SDS_P1;SDS_P2;PMS_P1;PMS_P2;Temp;Humidity;BMP_temperature;BMP_pressure;BME280_temperature;BME280_humidity;BME280_pressure;Samples;Min_cycle;Max_cycle;Signal;HPM_P1;HPM_P2
2022/06/21 00:00:46;;;;;;;5.60;4.28;;;;;;;22.84;64.77;96311.88;5057003;28;20207;-50
2022/06/21 00:03:17;;;;;;;5.68;4.15;;;;;;;22.78;65.43;96325.19;5071156;28;20210;-50
2022/06/21 00:05:46;;;;;;;7.65;3.95;;;;;;;22.75;65.37;96317.56;5057768;28;20203;-50
2022/06/21 00:08:14;;;;;;;6.30;4.28;;;;;;;22.70;65.77;96322.84;5057020;28;20521;-50
2022/06/21 00:10:43;;;;;;;6.53;4.28;;;;;;;22.64;66.61;96320.16;5056758;28;20203;-49
2022/06/21 00:13:13;;;;;;;6.90;4.15;;;;;;;22.59;66.94;96331.66;5057160;28;20738;-48
2022/06/21 00:15:40;;;;;;;5.78;3.80;;;;;;;22.55;66.55;96324.22;5057763;28;20222;-50
2022/06/21 00:18:10;;;;;;;4.55;4.07;;;;;;;22.47;67.91;96321.81;5044290;28;20235;-50
2022/06/21 00:20:38;;;;;;;4.03;3.72;;;;;;;22.43;68.06;96332.22;5056444;28;20266;-49
2022/06/21 00:23:06;;;;;;;4.50;3.80;;;;;;;22.38;69.12;96332.09;5057408;28;20211;-50
2022/06/21 00:25:33;;;;;;;4.32;4.03;;;;;;;22.36;68.89;96331.47;5058068;28;20233;-49
2022/06/21 00:28:00;;;;;;;5.50;4.30;;;;;;;22.26;69.66;96326.63;5058200;28;20218;-50
2022/06/21 00:30:27;;;;;;;4.28;3.97;;;;;;;22.25;69.45;96318.75;5056781;28;20221;-50
2022/06/21 00:32:55;;;;;;;5.35;3.80;;;;;;;22.19;69.61;96314.25;5057791;28;20203;-50
2022/06/21 00:35:24;;;;;;;5.15;3.83;;;;;;;22.17;68.75;96311.00;5056654;28;20219;-49
2022/06/21 00:37:53;;;;;;;7.15;4.43;;;;;;;22.11;69.32;96320.75;5058618;28;20238;-49
2022/06/21 00:40:24;;;;;;;6.50;4.30;;;;;;;22.11;68.95;96306.47;5049395;28;20222;-49
2022/06/21 00:42:56;;;;;;;5.10;4.38;;;;;;;21.98;69.19;96306.63;5051162;28;20230;-48
2022/06/21 00:45:32;;;;;;;4.72;4.15;;;;;;;21.93;69.59;96301.09;5056377;28;20238;-49
2022/06/21 00:48:03;;;;;;;6.15;3.70;;;;;;;22.03;68.83;96299.53;5074542;28;20234;-50
2022/06/21 00:50:32;;;;;;;4.88;4.10;;;;;;;21.98;70.61;96301.22;5075062;28;20204;-50
2022/06/21 00:53:04;;;;;;;5.80;4.35;;;;;;;22.00;70.01;96293.78;5070066;28;20207;-50
2022/06/21 00:55:36;;;;;;;4.50;4.10;;;;;;;21.94;70.89;96294.63;5067264;28;20207;-50
2022/06/21 00:58:03;;;;;;;5.57;4.55;;;;;;;21.89;70.46;96281.84;5058932;28;20211;-49
2022/06/21 01:00:32;;;;;;;5.50;4.13;;;;;;;21.85;70.19;96280.63;5051431;28;20283;-49
2022/06/21 01:03:03;;;;;;;4.30;3.97;;;;;;;21.85;70.25;96277.94;5057087;28;20203;-49
2022/06/21 01:05:32;;;;;;;4.47;4.07;;;;;;;21.81;71.07;96276.72;5056753;28;20202;-50
2022/06/21 01:07:59;;;;;;;4.80;3.78;;;;;;;21.80;72.08;96273.19;5045239;28;20639;-50
2022/06/21 01:10:29;;;;;;;5.22;4.72;;;;;;;21.73;72.17;96269.75;5056701;28;20213;-51
2022/06/21 01:12:58;;;;;;;6.20;4.00;;;;;;;21.73;71.87;96266.22;5056479;28;20259;-50
2022/06/21 01:15:27;;;;;;;6.60;3.95;;;;;;;21.66;72.23;96271.69;5055981;28;20581;-49
2022/06/21 01:17:57;;;;;;;6.10;4.20;;;;;;;21.66;72.15;96258.22;5055005;28;20224;-50
2022/06/21 01:20:25;;;;;;;4.97;4.25;;;;;;;21.62;72.45;96259.72;5049961;28;20714;-49
2022/06/21 01:22:57;;;;;;;4.50;4.05;;;;;;;21.60;72.16;96264.50;5056035;28;20715;-50
2022/06/21 01:25:31;;;;;;;5.78;4.30;;;;;;;21.54;72.82;96270.75;5056124;28;20597;-50
2022/06/21 01:27:59;;;;;;;6.43;4.07;;;;;;;21.51;72.05;96273.06;5055640;28;20527;-49
2022/06/21 01:30:27;;;;;;;4.97;4.10;;;;;;;21.51;72.69;96287.34;5056243;28;20628;-49
2022/06/21 01:32:56;;;;;;;4.65;4.20;;;;;;;21.47;72.82;96296.09;5056888;28;20298;-50
2022/06/21 01:35:32;;;;;;;4.40;4.10;;;;;;;21.45;73.26;96285.53;5056017;28;20214;-49
2022/06/21 01:37:59;;;;;;;4.70;4.10;;;;;;;21.44;73.14;96283.03;5047977;28;20215;-50
2022/06/21 01:40:31;;;;;;;6.10;4.28;;;;;;;21.41;72.92;96283.50;5053834;28;20207;-49
2022/06/21 01:43:02;;;;;;;4.80;4.30;;;;;;;21.34;73.94;96286.22;5056549;28;20203;-50
2022/06/21 01:45:33;;;;;;;6.82;4.57;;;;;;;21.32;73.69;96293.72;5074594;28;20209;-49
2022/06/21 01:48:06;;;;;;;5.38;4.30;;;;;;;21.42;72.64;96285.16;5065742;28;20342;-49
2022/06/21 01:50:34;;;;;;;4.85;4.40;;;;;;;21.28;73.70;96279.88;5043597;28;20398;-49
2022/06/21 01:53:04;;;;;;;5.05;4.30;;;;;;;21.25;73.80;96271.41;5069848;28;20221;-50
2022/06/21 01:55:34;;;;;;;6.15;4.07;;;;;;;21.24;74.07;96277.84;5076826;28;20206;-49
2022/06/21 01:58:03;;;;;;;5.57;4.53;;;;;;;21.21;74.04;96284.47;5059642;28;20227;-49
2022/06/21 02:00:31;;;;;;;5.15;4.65;;;;;;;21.21;74.19;96281.78;5056910;28;20241;-50
2022/06/21 02:03:02;;;;;;;4.95;3.95;;;;;;;21.19;74.23;96283.03;5055956;28;20541;-48
2022/06/21 02:05:36;;;;;;;4.57;4.13;;;;;;;21.12;75.43;96268.81;5055476;28;20198;-49
2022/06/21 02:08:09;;;;;;;5.47;4.55;;;;;;;21.11;75.08;96272.56;5051413;28;20194;-49
2022/06/21 02:10:39;;;;;;;5.65;4.35;;;;;;;21.06;75.41;96275.84;5068411;28;20209;-50
2022/06/21 02:13:14;;;;;;;4.93;4.40;;;;;;;21.02;75.92;96273.81;5075652;28;20293;-49
2022/06/21 02:15:42;;;;;;;4.85;3.90;;;;;;;20.98;76.62;96277.97;5075483;28;20642;-50
2022/06/21 02:18:11;;;;;;;5.70;4.35;;;;;;;20.94;76.93;96280.25;5065490;28;20222;-48
2022/06/21 02:20:40;;;;;;;4.55;4.15;;;;;;;20.88;77.28;96266.88;5055696;28;20211;-51
2022/06/21 02:23:07;;;;;;;6.68;4.80;;;;;;;20.79;76.62;96264.47;5055747;28;20432;-49
2022/06/21 02:25:35;;;;;;;5.50;4.95;;;;;;;20.82;77.86;96257.81;5055795;28;20215;-50
2022/06/21 02:28:04;;;;;;;5.22;4.72;;;;;;;20.75;77.71;96262.41;5054586;28;20238;-49
2022/06/21 02:30:36;;;;;;;6.32;4.80;;;;;;;20.74;77.42;96260.75;5045952;28;20199;-50
2022/06/21 02:33:05;;;;;;;7.93;5.25;;;;;;;20.65;78.45;96254.00;5056016;28;20218;-51
2022/06/21 02:35:35;;;;;;;9.10;4.68;;;;;;;20.62;78.96;96252.53;5073886;28;20301;-49
2022/06/21 02:38:05;;;;;;;4.90;4.55;;;;;;;20.59;78.97;96242.22;5057372;28;20202;-49
2022/06/21 02:40:33;;;;;;;7.60;4.85;;;;;;;20.57;78.31;96238.13;5054659;28;20647;-50
2022/06/21 02:43:02;;;;;;;5.05;4.60;;;;;;;20.42;80.29;96246.47;5055745;28;20199;-50
2022/06/21 02:45:33;;;;;;;5.28;4.80;;;;;;;20.40;80.06;96243.19;5055430;28;20654;-51
2022/06/21 02:48:03;;;;;;;5.53;4.78;;;;;;;20.32;81.07;96243.41;5054618;28;20314;-49
2022/06/21 02:50:38;;;;;;;6.75;5.13;;;;;;;20.27;80.86;96248.56;5055948;28;20233;-49
2022/06/21 02:53:10;;;;;;;6.70;5.35;;;;;;;20.27;80.61;96243.19;5064135;28;20217;-50
2022/06/21 02:55:43;;;;;;;5.40;4.93;;;;;;;20.21;81.01;96244.88;5065119;28;20195;-50
2022/06/21 02:58:15;;;;;;;5.47;4.90;;;;;;;20.18;81.54;96239.09;5060852;28;20241;-49
2022/06/21 03:00:43;;;;;;;5.53;5.00;;;;;;;20.12;81.54;96239.94;5058915;28;20295;-51
2022/06/21 03:03:16;;;;;;;6.22;5.38;;;;;;;20.06;82.45;96243.47;5057010;28;20222;-51
2022/06/21 03:05:42;;;;;;;5.53;5.03;;;;;;;20.06;81.79;96235.41;5073416;28;20226;-49
2022/06/21 03:08:10;;;;;;;5.35;4.95;;;;;;;20.03;82.06;96227.78;5063543;28;20564;-49
2022/06/21 03:10:40;;;;;;;8.60;5.38;;;;;;;19.97;82.41;96225.97;5055220;28;20217;-50
2022/06/21 03:13:10;;;;;;;5.90;5.22;;;;;;;19.97;82.71;96217.91;5054748;28;20651;-50
2022/06/21 03:15:37;;;;;;;5.43;4.95;;;;;;;19.95;82.73;96222.63;5055021;28;20210;-50
2022/06/21 03:18:08;;;;;;;5.13;4.70;;;;;;;19.95;82.48;96228.84;5042604;28;20207;-48
2022/06/21 03:20:35;;;;;;;6.35;5.32;;;;;;;19.93;82.78;96225.56;5042065;28;20211;-49
2022/06/21 03:23:02;;;;;;;5.57;5.07;;;;;;;19.92;82.58;96218.53;5055073;28;20344;-50
2022/06/21 03:25:38;;;;;;;5.72;5.10;;;;;;;19.87;82.79;96221.84;5055345;28;20281;-51
2022/06/21 03:28:22;;;;;;;7.07;5.82;;;;;;;19.98;81.79;96222.25;5054823;28;20530;-50
2022/06/21 03:30:49;;;;;;;5.80;5.30;;;;;;;19.90;82.33;96225.16;5055720;28;20290;-48
2022/06/21 03:33:18;;;;;;;6.18;5.57;;;;;;;19.84;83.01;96216.91;5056331;28;20207;-51
2022/06/21 03:35:45;;;;;;;5.32;4.93;;;;;;;19.82;82.55;96223.53;5055869;28;20211;-50
2022/06/21 03:38:13;;;;;;;6.20;5.70;;;;;;;19.80;84.10;96223.72;5055013;28;20536;-48
2022/06/21 03:43:41;;;;;;;6.47;5.50;;;;;;;19.76;82.88;96221.69;5013201;28;20305;-49
2022/06/21 03:46:12;;;;;;;6.43;5.20;;;;;;;19.70;83.42;96215.28;5046378;28;20306;-49
2022/06/21 03:48:43;;;;;;;6.10;4.97;;;;;;;19.73;82.66;96212.19;5051814;28;20235;-50
2022/06/21 03:51:13;;;;;;;5.63;5.22;;;;;;;19.67;83.00;96213.03;5054957;28;20213;-50
2022/06/21 03:53:42;;;;;;;5.70;5.18;;;;;;;19.59;83.91;96213.25;5054188;28;20203;-48
2022/06/21 03:56:13;;;;;;;5.97;5.38;;;;;;;19.61;84.24;96224.59;5054886;28;20207;-50
2022/06/21 03:58:51;;;;;;;6.13;5.47;;;;;;;19.60;84.81;96228.31;5054573;28;20679;-49
2022/06/21 04:01:23;;;;;;;6.20;5.22;;;;;;;19.63;84.56;96229.75;5048922;28;20305;-49
2022/06/21 04:03:56;;;;;;;6.32;5.25;;;;;;;19.75;83.40;96233.44;5055045;28;20195;-50
2022/06/21 04:06:28;;;;;;;5.38;4.97;;;;;;;19.74;82.90;96235.28;5054854;28;20212;-51
2022/06/21 04:09:03;;;;;;;5.80;5.30;;;;;;;19.70;83.15;96231.38;5056410;28;20650;-49
2022/06/21 04:11:36;;;;;;;5.40;4.90;;;;;;;19.69;83.39;96227.06;5050929;28;20211;-50
2022/06/21 04:14:12;;;;;;;9.35;5.50;;;;;;;19.67;83.90;96229.13;5058086;28;20293;-49
2022/06/21 04:16:41;;;;;;;5.47;4.97;;;;;;;19.75;83.32;96234.28;5058317;28;20210;-50
2022/06/21 04:19:14;;;;;;;5.55;5.13;;;;;;;19.86;82.84;96230.13;5057646;28;20219;-49
2022/06/21 04:21:47;;;;;;;5.97;5.47;;;;;;;19.84;82.49;96230.31;5057426;28;20528;-49
2022/06/21 04:24:15;;;;;;;5.65;5.25;;;;;;;19.82;82.27;96243.13;5067122;28;20210;-49
2022/06/21 04:26:50;;;;;;;6.28;5.75;;;;;;;19.78;82.78;96239.22;5068307;28;20266;-51
2022/06/21 04:29:21;;;;;;;8.15;5.72;;;;;;;19.72;82.91;96240.06;5062174;28;20203;-49
2022/06/21 04:31:51;;;;;;;6.20;5.10;;;;;;;19.75;82.88;96250.38;5057290;28;20286;-49
2022/06/21 04:34:22;;;;;;;6.30;5.78;;;;;;;19.77;81.90;96248.28;5057946;28;20229;-50
2022/06/21 04:36:53;;;;;;;8.80;5.53;;;;;;;19.80;82.40;96261.28;5057893;28;20297;-49
2022/06/21 04:39:24;;;;;;;6.00;5.43;;;;;;;19.69;83.91;96261.94;5057363;28;20231;-50
2022/06/21 04:41:53;;;;;;;6.97;6.20;;;;;;;19.82;83.16;96256.53;5057097;28;20219;-49
2022/06/21 04:44:22;;;;;;;6.32;5.72;;;;;;;19.86;82.32;96252.41;5057384;28;20217;-49
2022/06/21 04:46:52;;;;;;;5.82;5.32;;;;;;;20.05;81.67;96249.88;5057961;28;20555;-50
2022/06/21 04:49:22;;;;;;;6.93;6.18;;;;;;;20.21;80.95;96250.25;5057509;28;20239;-51
2022/06/21 04:51:52;;;;;;;6.30;5.70;;;;;;;20.42;79.98;96251.00;5056726;28;20245;-49
2022/06/21 04:54:24;;;;;;;6.65;5.47;;;;;;;20.57;79.23;96243.50;5058769;28;20207;-50
2022/06/21 04:57:00;;;;;;;6.60;6.00;;;;;;;20.62;79.39;96247.16;5059087;28;20195;-50
2022/06/21 04:59:30;;;;;;;6.30;5.70;;;;;;;20.64;77.44;96253.16;5063098;28;20223;-50
2022/06/21 05:01:57;;;;;;;6.75;6.15;;;;;;;20.58;77.33;96245.94;5072791;28;20210;-49
2022/06/21 05:04:28;;;;;;;5.88;5.38;;;;;;;20.56;77.82;96248.03;5065336;28;20203;-49
2022/06/21 05:06:56;;;;;;;6.47;5.97;;;;;;;20.59;77.18;96247.59;5061178;28;20289;-50
2022/06/21 05:09:25;;;;;;;6.53;5.90;;;;;;;20.63;78.03;96245.31;5057311;28;20207;-51
2022/06/21 05:11:59;;;;;;;6.07;5.57;;;;;;;20.66;76.86;96251.09;5056267;28;20524;-49
2022/06/21 05:14:32;;;;;;;6.35;5.85;;;;;;;20.58;78.15;96240.56;5057332;28;20286;-49
2022/06/21 05:16:58;;;;;;;6.45;5.90;;;;;;;20.77;77.70;96249.56;5057573;28;20203;-49
2022/06/21 05:19:31;;;;;;;6.20;5.70;;;;;;;20.97;76.95;96255.66;5056459;28;20611;-50
2022/06/21 05:22:02;;;;;;;6.38;5.78;;;;;;;21.12;75.86;96245.44;5056331;28;20257;-49
2022/06/21 05:24:29;;;;;;;7.03;5.88;;;;;;;21.30;76.17;96248.19;5056692;28;20221;-50
2022/06/21 05:27:02;;;;;;;6.47;5.97;;;;;;;21.28;73.93;96252.16;5056896;28;20301;-50
2022/06/21 05:29:33;;;;;;;5.80;5.25;;;;;;;21.51;75.00;96251.53;5057225;28;20210;-49
2022/06/21 05:32:03;;;;;;;6.32;5.80;;;;;;;21.64;74.46;96259.50;5056786;28;20277;-51
2022/06/21 05:34:33;;;;;;;6.22;5.72;;;;;;;21.80;73.01;96261.59;5047411;28;20208;-49
2022/06/21 05:37:03;;;;;;;6.65;5.75;;;;;;;21.95;73.16;96261.28;5053537;28;20286;-50
2022/06/21 05:39:32;;;;;;;8.52;5.63;;;;;;;22.04;71.05;96258.06;5056998;28;20214;-49
2022/06/21 05:42:03;;;;;;;7.40;5.78;;;;;;;22.23;71.00;96264.28;5056403;28;20203;-49
2022/06/21 05:44:35;;;;;;;7.00;5.60;;;;;;;22.34;70.34;96258.16;5056820;28;20727;-49
2022/06/21 05:47:05;;;;;;;6.50;6.00;;;;;;;22.36;70.55;96245.25;5046047;28;20207;-50
2022/06/21 05:49:36;;;;;;;5.47;5.07;;;;;;;22.58;70.13;96246.44;5069506;28;20641;-50
2022/06/21 05:52:05;;;;;;;6.63;5.70;;;;;;;22.34;69.69;96241.97;5051333;28;20631;-50
2022/06/21 05:54:34;;;;;;;6.35;5.80;;;;;;;22.10;69.84;96253.66;5056480;28;20297;-49
2022/06/21 05:57:01;;;;;;;6.70;6.10;;;;;;;21.94;71.81;96254.25;5056940;28;20654;-49
2022/06/21 05:59:28;;;;;;;7.20;5.82;;;;;;;22.12;71.74;96248.88;5057444;28;20313;-50
2022/06/21 06:01:58;;;;;;;7.22;6.22;;;;;;;22.45;70.69;96243.94;5067214;28;20213;-51
2022/06/21 06:04:29;;;;;;;8.70;6.15;;;;;;;22.67;69.08;96245.09;5061580;28;20738;-50
2022/06/21 06:06:59;;;;;;;6.22;5.40;;;;;;;23.05;68.95;96252.03;5056811;28;20551;-51
2022/06/21 06:09:29;;;;;;;6.25;5.32;;;;;;;23.21;68.24;96244.09;5056287;28;20207;-50
2022/06/21 06:12:00;;;;;;;7.55;6.03;;;;;;;23.14;65.89;96250.63;5055886;28;20252;-50
2022/06/21 06:14:33;;;;;;;7.75;5.78;;;;;;;23.01;67.26;96259.75;5055142;28;20291;-50
2022/06/21 06:17:02;;;;;;;11.88;6.50;;;;;;;23.10;67.82;96260.25;5056839;28;20206;-49
2022/06/21 06:19:32;;;;;;;6.18;5.55;;;;;;;23.13;67.19;96255.22;5050925;28;20275;-49
2022/06/21 06:22:14;;;;;;;7.57;5.70;;;;;;;23.06;67.14;96272.56;5040984;28;20192;-51
2022/06/21 06:24:46;;;;;;;13.07;6.00;;;;;;;22.71;68.60;96265.16;5046233;28;20210;-49
2022/06/21 06:27:24;;;;;;;6.80;6.13;;;;;;;22.40;68.98;96273.41;5055617;28;20294;-49
2022/06/21 06:29:52;;;;;;;6.40;5.80;;;;;;;22.26;69.78;96266.53;5054201;28;20210;-51
2022/06/21 06:32:22;;;;;;;6.28;5.68;;;;;;;22.05;71.74;96259.72;5090191;28;20233;-51
2022/06/21 06:34:51;;;;;;;7.00;5.57;;;;;;;21.84;71.73;96250.19;5078644;28;20210;-50
2022/06/21 06:37:25;;;;;;;6.70;6.10;;;;;;;21.84;73.32;96263.66;5085040;28;20638;-49
2022/06/21 06:39:52;;;;;;;6.47;5.30;;;;;;;21.83;72.34;96266.53;5070314;28;20249;-50
2022/06/21 06:42:21;;;;;;;7.13;6.43;;;;;;;21.85;73.23;96264.47;5069878;28;20266;-49
2022/06/21 06:44:51;;;;;;;13.20;6.35;;;;;;;21.92;73.59;96272.50;5068370;28;20218;-51
2022/06/21 06:47:25;;;;;;;7.50;6.43;;;;;;;21.86;72.71;96271.47;5066609;28;20214;-50
2022/06/21 06:49:54;;;;;;;6.40;5.90;;;;;;;21.94;71.82;96273.09;5064093;28;20218;-50
2022/06/21 06:52:24;;;;;;;9.65;5.95;;;;;;;21.93;73.90;96272.25;5067053;28;20216;-50
2022/06/21 06:55:03;;;;;;;7.63;6.10;;;;;;;21.83;73.45;96272.75;5064515;28;20238;-50
2022/06/21 06:57:33;;;;;;;7.03;6.05;;;;;;;21.78;73.43;96272.63;5056198;28;20218;-51
2022/06/21 06:59:59;;;;;;;10.27;6.68;;;;;;;21.75;74.01;96275.72;5055278;28;20235;-49
2022/06/21 07:02:31;;;;;;;5.85;5.38;;;;;;;21.93;73.64;96284.94;5066684;28;20301;-50
2022/06/21 07:05:03;;;;;;;6.00;5.43;;;;;;;22.30;73.99;96282.03;5054811;28;20643;-50
2022/06/21 07:07:39;;;;;;;6.65;5.97;;;;;;;22.63;72.06;96286.19;5064536;28;20203;-49
2022/06/21 07:10:12;;;;;;;6.63;6.03;;;;;;;22.96;70.04;96285.75;5069277;28;20198;-50
2022/06/21 07:12:40;;;;;;;6.22;5.63;;;;;;;23.35;69.13;96277.09;5073853;28;20213;-48
2022/06/21 07:15:10;;;;;;;6.32;5.68;;;;;;;23.59;67.63;96272.59;5044477;28;20287;-50
2022/06/21 07:17:42;;;;;;;7.65;5.28;;;;;;;23.85;67.44;96271.28;5055396;28;20237;-50
2022/06/21 07:20:14;;;;;;;5.82;5.32;;;;;;;24.05;66.18;96274.47;5054815;28;20729;-50
2022/06/21 07:22:43;;;;;;;6.28;5.68;;;;;;;24.27;65.70;96273.63;5052387;28;20579;-49
2022/06/21 07:25:18;;;;;;;8.00;5.07;;;;;;;24.48;63.88;96274.88;5047681;28;20297;-50
2022/06/21 07:27:49;;;;;;;7.05;5.07;;;;;;;24.77;63.27;96281.97;5041534;28;20210;-49
2022/06/21 07:30:17;;;;;;;5.78;5.30;;;;;;;24.99;62.33;96289.44;5055849;28;20210;-49
2022/06/21 07:32:50;;;;;;;9.38;6.32;;;;;;;25.01;61.23;96288.13;5069893;28;20294;-50
2022/06/21 07:35:19;;;;;;;6.03;5.53;;;;;;;25.16;62.42;96282.19;5050305;28;20298;-51
2022/06/21 07:37:52;;;;;;;10.23;5.80;;;;;;;25.10;62.02;96275.88;5055654;28;20222;-50
2022/06/21 07:40:28;;;;;;;6.07;5.13;;;;;;;25.14;60.92;96271.63;5054136;28;20215;-50
2022/06/21 07:42:59;;;;;;;5.63;5.13;;;;;;;25.41;60.25;96270.97;5058859;28;20199;-52
2022/06/21 07:45:32;;;;;;;6.30;5.03;;;;;;;25.69;60.41;96274.47;5057327;28;20203;-50
2022/06/21 07:48:04;;;;;;;6.10;5.50;;;;;;;25.79;59.77;96275.72;5058566;28;20238;-50
2022/06/21 07:50:34;;;;;;;7.97;5.28;;;;;;;25.93;59.23;96275.13;5058381;28;20199;-50
2022/06/21 07:53:06;;;;;;;10.15;6.15;;;;;;;25.54;59.85;96273.44;5055343;28;20212;-50
2022/06/21 07:55:38;;;;;;;5.60;5.18;;;;;;;25.98;56.91;96266.22;5057524;28;20290;-49
2022/06/21 07:58:08;;;;;;;7.07;4.95;;;;;;;25.98;59.44;96252.69;5058519;28;20210;-50
2022/06/21 08:08:51;;;;;;;5.40;5.00;;;;;;;26.51;57.60;96261.03;5058278;28;20650;-50
2022/06/21 08:11:21;;;;;;;7.78;6.25;;;;;;;26.61;55.81;96255.72;5057804;28;20206;-50
2022/06/21 08:13:48;;;;;;;8.73;6.07;;;;;;;26.67;55.37;96243.06;5057188;28;20206;-49
2022/06/21 08:16:16;;;;;;;5.82;5.22;;;;;;;26.87;56.96;96248.75;5057673;28;20223;-51
2022/06/21 08:18:46;;;;;;;5.93;5.43;;;;;;;26.90;55.42;96258.25;5057540;28;20203;-50
2022/06/21 08:21:16;;;;;;;5.30;4.80;;;;;;;27.19;53.67;96246.91;5044421;28;20227;-50
2022/06/21 08:23:47;;;;;;;7.22;5.60;;;;;;;27.13;55.55;96263.41;5049663;28;20200;-52
2022/06/21 08:26:19;;;;;;;6.03;5.45;;;;;;;26.98;55.38;96276.81;5057540;28;20199;-49
2022/06/21 08:28:49;;;;;;;7.72;5.40;;;;;;;26.84;56.65;96281.00;5056481;28;20239;-50
2022/06/21 08:31:21;;;;;;;9.32;5.70;;;;;;;27.32;55.65;96282.84;5059957;28;20286;-50
2022/06/21 08:33:51;;;;;;;6.90;5.78;;;;;;;27.50;53.20;96277.91;5059259;28;20222;-51
2022/06/21 08:36:21;;;;;;;7.50;5.30;;;;;;;27.28;55.55;96277.09;5055087;28;20199;-51
2022/06/21 08:38:54;;;;;;;7.38;5.40;;;;;;;27.18;55.87;96272.41;5075453;28;20206;-50
2022/06/21 08:41:56;;;;;;;10.95;5.53;;;;;;;26.79;55.96;96283.59;5077322;28;20214;-50
2022/06/21 08:48:22;;;;;;;6.63;5.35;;;;;;;26.63;58.09;96285.31;5056734;28;20203;-50
2022/06/21 08:51:36;;;;;;;9.23;6.32;;;;;;;26.44;57.70;96275.84;5057034;28;20290;-51
2022/06/21 08:54:10;;;;;;;6.00;5.38;;;;;;;26.90;57.10;96264.50;4987811;28;20288;-50
2022/06/21 08:56:42;;;;;;;6.53;5.30;;;;;;;27.26;57.95;96252.13;5049310;28;20711;-49
2022/06/21 08:59:18;;;;;;;6.72;6.03;;;;;;;27.02;54.10;96257.06;5056832;28;20203;-50
2022/06/21 09:01:49;;;;;;;6.43;5.50;;;;;;;26.93;56.67;96257.75;5062629;28;20551;-51
2022/06/21 09:04:32;;;;;;;7.80;5.28;;;;;;;26.69;58.49;96255.28;5051562;28;20287;-48
2022/06/21 09:07:45;;;;;;;8.35;5.57;;;;;;;26.29;57.20;96257.50;5045827;28;20245;-49
2022/06/21 09:10:23;;;;;;;8.25;6.38;;;;;;;26.10;59.28;96256.13;5030774;28;20286;-49
2022/06/21 09:13:02;;;;;;;8.95;5.85;;;;;;;25.92;59.88;96250.97;5056032;28;20211;-49
2022/06/21 09:15:47;;;;;;;7.47;6.55;;;;;;;25.92;59.01;96251.81;5054644;28;20191;-49
2022/06/21 09:18:28;;;;;;;6.95;4.97;;;;;;;26.02;59.97;96259.25;5056132;28;20192;-50
2022/06/21 09:21:02;;;;;;;8.02;5.78;;;;;;;26.05;60.68;96256.03;5071435;28;20211;-50
2022/06/21 09:23:51;;;;;;;6.03;5.40;;;;;;;26.38;59.37;96256.00;5060634;28;20245;-49
2022/06/21 09:26:30;;;;;;;7.95;5.30;;;;;;;26.98;59.01;96249.66;5052006;28;20238;-49
2022/06/21 09:29:03;;;;;;;8.60;5.78;;;;;;;27.24;57.17;96240.72;5053951;28;20246;-48
2022/06/21 09:31:38;;;;;;;8.05;6.00;;;;;;;27.54;56.46;96243.72;5045336;28;20257;-49
2022/06/21 09:34:08;;;;;;;10.93;6.15;;;;;;;27.62;55.61;96240.53;5055166;28;20194;-50
2022/06/21 09:36:42;;;;;;;7.80;5.53;;;;;;;27.85;55.38;96238.50;5070143;28;20278;-50
2022/06/21 09:39:15;;;;;;;9.80;5.63;;;;;;;27.93;55.02;96243.44;5077848;28;20217;-49
2022/06/21 09:41:51;;;;;;;8.27;6.03;;;;;;;27.94;55.45;96240.47;5077376;28;20309;-50
2022/06/21 09:44:25;;;;;;;7.45;6.18;;;;;;;27.43;54.15;96247.38;5058644;28;20202;-49
2022/06/21 09:46:59;;;;;;;6.40;5.88;;;;;;;27.78;55.85;96240.63;5057112;28;20294;-49
2022/06/21 09:49:41;;;;;;;8.13;6.40;;;;;;;27.63;55.62;96241.34;5055596;28;20239;-49
2022/06/21 09:52:16;;;;;;;7.57;5.78;;;;;;;27.45;56.56;96237.13;5055939;28;20646;-50
2022/06/21 09:54:47;;;;;;;8.35;5.85;;;;;;;27.29;56.11;96238.03;5050287;28;20202;-49
2022/06/21 09:57:20;;;;;;;8.25;6.07;;;;;;;27.55;56.33;96239.94;5056156;28;20242;-48
2022/06/21 09:59:54;;;;;;;15.15;7.10;;;;;;;27.32;55.38;96251.09;5055843;28;20207;-50
2022/06/21 10:02:26;;;;;;;11.88;6.63;;;;;;;27.18;56.98;96250.69;5055124;28;20674;-48
2022/06/21 10:05:00;;;;;;;11.07;6.40;;;;;;;27.45;57.51;96247.16;5053566;28;20647;-49
2022/06/21 10:07:37;;;;;;;8.32;5.57;;;;;;;27.58;55.99;96239.41;5048413;28;20210;-49
2022/06/21 10:10:19;;;;;;;6.78;6.07;;;;;;;27.87;54.01;96225.47;5056465;28;20203;-49
2022/06/21 10:12:52;;;;;;;5.70;5.00;;;;;;;28.41;54.58;96221.44;5055810;28;20286;-50
2022/06/21 10:15:38;;;;;;;6.72;5.80;;;;;;;28.77;52.92;96213.47;5055736;28;20238;-49
2022/06/21 10:18:38;;;;;;;6.68;5.70;;;;;;;29.00;51.07;96197.44;5056844;28;20198;-48
2022/06/21 10:21:28;;;;;;;7.97;5.80;;;;;;;29.38;52.12;96198.88;5055887;28;20310;-50
2022/06/21 10:24:09;;;;;;;6.15;5.60;;;;;;;29.68;50.37;96194.50;5054950;28;20231;-50
2022/06/21 10:26:53;;;;;;;8.27;5.60;;;;;;;29.75;48.94;96203.22;5070066;28;20199;-51
2022/06/21 10:29:35;;;;;;;9.70;5.68;;;;;;;29.99;51.03;96210.56;5075715;28;20202;-50
2022/06/21 10:32:26;;;;;;;7.65;6.40;;;;;;;29.81;48.24;96205.66;5075623;28;20281;-49
2022/06/21 10:35:10;;;;;;;10.63;6.30;;;;;;;30.08;48.64;96202.63;5045856;28;20259;-51
2022/06/21 10:37:42;;;;;;;6.82;6.10;;;;;;;30.11;49.51;96210.28;5044811;28;20285;-50
2022/06/21 10:40:29;;;;;;;6.25;5.35;;;;;;;30.36;47.09;96221.06;5055918;28;20207;-49
2022/06/21 10:43:33;;;;;;;5.72;5.25;;;;;;;30.43;48.53;96215.38;5050960;28;20203;-51
2022/06/21 10:46:01;;;;;;;6.75;5.53;;;;;;;30.70;48.52;96198.59;5046693;28;20290;-51
2022/06/21 10:48:57;;;;;;;8.65;6.00;;;;;;;30.64;47.99;96189.63;5073577;28;20321;-51
2022/06/21 10:51:37;;;;;;;6.85;6.05;;;;;;;30.67;46.50;96199.97;5063106;28;20535;-50
2022/06/21 10:54:17;;;;;;;7.45;5.32;;;;;;;30.86;47.30;96192.75;5060369;28;20199;-49
2022/06/21 10:57:13;;;;;;;6.30;5.80;;;;;;;31.14;48.25;96193.19;5055751;28;20206;-51
2022/06/21 11:02:58;;;;;;;8.32;6.13;;;;;;;30.97;47.20;96188.09;5054679;28;20218;-50
2022/06/21 11:05:33;;;;;;;8.57;5.90;;;;;;;31.08;48.39;96179.56;5056522;28;20202;-49
2022/06/21 11:08:08;;;;;;;6.68;5.53;;;;;;;31.24;49.05;96176.72;5074809;28;20259;-49
2022/06/21 11:10:40;;;;;;;9.23;5.80;;;;;;;30.97;47.49;96172.53;5074613;28;20293;-50
2022/06/21 11:13:14;;;;;;;6.82;5.85;;;;;;;31.02;46.26;96179.88;5065578;28;20206;-51
2022/06/21 11:15:51;;;;;;;9.23;6.10;;;;;;;31.19;47.39;96180.28;5049831;28;20231;-50
2022/06/21 11:18:26;;;;;;;7.13;5.57;;;;;;;31.07;46.22;96186.09;5065501;28;20213;-49
2022/06/21 11:21:01;;;;;;;7.22;5.82;;;;;;;31.14;47.81;96172.16;5056417;28;20218;-51
2022/06/21 11:23:38;;;;;;;6.03;5.53;;;;;;;31.34;46.72;96193.84;5064843;28;20315;-53
2022/06/21 11:26:24;;;;;;;6.53;5.57;;;;;;;31.00;48.56;96203.91;5058289;28;20237;-50
2022/06/21 11:28:55;;;;;;;9.75;6.35;;;;;;;30.69;46.64;96210.59;5058356;28;20241;-52
2022/06/21 11:31:28;;;;;;;7.20;5.90;;;;;;;30.58;48.13;96218.03;5068857;28;20289;-49
2022/06/21 11:34:01;;;;;;;7.93;7.13;;;;;;;30.22;49.95;96233.66;5066054;28;20199;-49
2022/06/21 11:36:35;;;;;;;7.55;5.72;;;;;;;29.74;51.51;96245.19;5058013;28;20306;-49
2022/06/21 11:39:12;;;;;;;6.80;6.10;;;;;;;29.35;51.52;96207.59;5058272;28;20206;-49
2022/06/21 11:42:06;;;;;;;9.20;6.32;;;;;;;29.12;52.65;96157.16;5058258;28;20219;-49
2022/06/21 11:45:04;;;;;;;7.35;5.55;;;;;;;28.97;52.46;96083.66;5057419;28;20496;-49
2022/06/21 11:47:44;;;;;;;7.65;5.95;;;;;;;29.54;53.34;96094.25;5033456;28;20685;-56
2022/06/21 11:50:18;;;;;;;6.47;5.75;;;;;;;29.92;52.37;96122.78;5057589;28;20276;-56
2022/06/21 11:53:14;;;;;;;8.27;6.05;;;;;;;30.13;50.55;96137.97;5058037;28;20203;-57
2022/06/21 11:55:45;;;;;;;6.47;5.68;;;;;;;30.22;48.17;96127.28;5046474;28;20211;-56
2022/06/21 11:58:20;;;;;;;8.15;5.90;;;;;;;30.63;51.54;96135.31;5058223;28;20211;-57
2022/06/21 12:00:54;;;;;;;8.50;6.07;;;;;;;30.86;50.29;96135.41;5057935;28;20686;-58
2022/06/21 12:03:30;;;;;;;8.38;5.45;;;;;;;30.98;46.12;96135.09;5056187;28;20227;-58
2022/06/21 12:05:57;;;;;;;5.85;5.28;;;;;;;31.04;46.38;96140.25;5052969;28;20213;-60
2022/06/21 12:08:28;;;;;;;8.43;5.40;;;;;;;31.14;45.29;96120.25;5058819;28;20230;-57
2022/06/21 12:11:03;;;;;;;7.50;5.30;;;;;;;31.37;44.92;96094.91;5058459;28;20290;-55
2022/06/21 12:13:40;;;;;;;7.25;4.97;;;;;;;31.38;43.17;96120.31;5058077;28;20206;-55
2022/06/21 12:16:19;;;;;;;10.60;4.85;;;;;;;31.13;43.73;96132.28;5055455;28;20217;-54
2022/06/21 12:18:48;;;;;;;9.80;5.28;;;;;;;31.15;43.26;96097.28;5057101;28;20720;-55